sensor_id;sensor_type;location;lat;lon;timestamp;P1;durP1;ratioP1;P2;durP2;ratioP2
48207;SDS011;33997;53.278;9.708;2023-04-06T00:00:18;8.63;;;5.35;;
48207;SDS011;33997;53.278;9.708;2023-04-06T00:02:43;15.65;;;5.70;;
48207;SDS011;33997;53.278;9.708;2023-04-06T00:05:09;13.73;;;6.35;;
48207;SDS011;33997;53.278;9.708;2023-04-06T00:07:35;10.15;;;5.80;;
48207;SDS011;33997;53.278;9.708;2023-04-06T00:10:00;8.48;;;5.20;;
48207;SDS011;33997;53.278;9.708;2023-04-06T00:12:26;11.52;;;6.18;;
48207;SDS011;33997;53.278;9.708;2023-04-06T00:14:52;10.77;;;6.15;;
48207;SDS011;33997;53.278;9.708;2023-04-06T00:17:17;9.38;;;5.93;;
48207;SDS011;33997;53.278;9.708;2023-04-06T00:19:42;17.05;;;6.25;;
48207;SDS011;33997;53.278;9.708;2023-04-06T00:22:08;10.50;;;5.85;;
48207;SDS011;33997;53.278;9.708;2023-04-06T00:24:33;9.93;;;5.88;;
48207;SDS011;33997;53.278;9.708;2023-04-06T00:26:59;10.38;;;6.00;;
48207;SDS011;33997;53.278;9.708;2023-04-06T00:29:24;12.30;;;6.90;;
48207;SDS011;33997;53.278;9.708;2023-04-06T00:31:50;11.30;;;6.07;;
48207;SDS011;33997;53.278;9.708;2023-04-06T00:34:15;11.38;;;5.80;;
48207;SDS011;33997;53.278;9.708;2023-04-06T00:36:41;11.35;;;5.97;;
48207;SDS011;33997;53.278;9.708;2023-04-06T00:39:06;12.13;;;7.00;;
48207;SDS011;33997;53.278;9.708;2023-04-06T00:41:32;10.77;;;6.00;;
48207;SDS011;33997;53.278;9.708;2023-04-06T00:43:57;10.43;;;6.10;;
48207;SDS011;33997;53.278;9.708;2023-04-06T00:46:23;11.98;;;6.38;;
48207;SDS011;33997;53.278;9.708;2023-04-06T00:48:49;10.85;;;6.63;;
48207;SDS011;33997;53.278;9.708;2023-04-06T00:51:14;10.90;;;6.20;;
48207;SDS011;33997;53.278;9.708;2023-04-06T00:53:40;12.93;;;6.25;;
48207;SDS011;33997;53.278;9.708;2023-04-06T00:56:05;10.88;;;6.57;;
48207;SDS011;33997;53.278;9.708;2023-04-06T00:58:31;12.80;;;6.78;;
48207;SDS011;33997;53.278;9.708;2023-04-06T01:00:57;11.20;;;6.45;;
48207;SDS011;33997;53.278;9.708;2023-04-06T01:03:23;10.18;;;6.03;;
48207;SDS011;33997;53.278;9.708;2023-04-06T01:05:48;14.88;;;6.93;;
48207;SDS011;33997;53.278;9.708;2023-04-06T01:08:14;10.07;;;6.60;;
48207;SDS011;33997;53.278;9.708;2023-04-06T01:10:39;11.45;;;5.60;;
48207;SDS011;33997;53.278;9.708;2023-04-06T01:13:05;12.70;;;6.32;;
48207;SDS011;33997;53.278;9.708;2023-04-06T01:15:31;10.20;;;6.43;;
48207;SDS011;33997;53.278;9.708;2023-04-06T01:18:00;12.43;;;6.68;;
48207;SDS011;33997;53.278;9.708;2023-04-06T01:20:25;11.18;;;6.72;;
48207;SDS011;33997;53.278;9.708;2023-04-06T01:22:51;12.68;;;6.50;;
48207;SDS011;33997;53.278;9.708;2023-04-06T01:25:16;10.75;;;6.10;;
48207;SDS011;33997;53.278;9.708;2023-04-06T01:27:42;11.35;;;6.40;;
48207;SDS011;33997;53.278;9.708;2023-04-06T01:30:07;10.90;;;6.45;;
48207;SDS011;33997;53.278;9.708;2023-04-06T01:32:33;12.25;;;6.38;;
48207;SDS011;33997;53.278;9.708;2023-04-06T01:34:59;11.43;;;6.97;;
48207;SDS011;33997;53.278;9.708;2023-04-06T01:37:24;10.07;;;6.47;;
48207;SDS011;33997;53.278;9.708;2023-04-06T01:39:50;12.48;;;6.95;;
48207;SDS011;33997;53.278;9.708;2023-04-06T01:42:16;12.90;;;7.45;;
48207;SDS011;33997;53.278;9.708;2023-04-06T01:44:41;13.05;;;7.18;;
48207;SDS011;33997;53.278;9.708;2023-04-06T01:47:07;11.85;;;7.47;;
48207;SDS011;33997;53.278;9.708;2023-04-06T01:49:32;10.27;;;6.57;;
48207;SDS011;33997;53.278;9.708;2023-04-06T01:51:58;13.95;;;7.63;;
48207;SDS011;33997;53.278;9.708;2023-04-06T01:54:24;10.13;;;6.85;;
48207;SDS011;33997;53.278;9.708;2023-04-06T01:56:50;12.65;;;6.97;;
48207;SDS011;33997;53.278;9.708;2023-04-06T01:59:17;12.20;;;7.45;;
48207;SDS011;33997;53.278;9.708;2023-04-06T02:01:42;11.52;;;7.50;;
48207;SDS011;33997;53.278;9.708;2023-04-06T02:04:08;13.88;;;7.57;;
48207;SDS011;33997;53.278;9.708;2023-04-06T02:06:33;10.90;;;7.53;;
48207;SDS011;33997;53.278;9.708;2023-04-06T02:08:59;11.40;;;7.43;;
48207;SDS011;33997;53.278;9.708;2023-04-06T02:11:24;11.00;;;7.60;;
48207;SDS011;33997;53.278;9.708;2023-04-06T02:13:50;10.88;;;7.10;;
48207;SDS011;33997;53.278;9.708;2023-04-06T02:16:15;12.82;;;7.50;;
48207;SDS011;33997;53.278;9.708;2023-04-06T02:18:41;12.30;;;8.27;;
48207;SDS011;33997;53.278;9.708;2023-04-06T02:21:06;12.02;;;7.43;;
48207;SDS011;33997;53.278;9.708;2023-04-06T02:23:32;13.40;;;8.38;;
48207;SDS011;33997;53.278;9.708;2023-04-06T02:25:57;12.82;;;7.80;;
48207;SDS011;33997;53.278;9.708;2023-04-06T02:28:23;12.63;;;8.35;;
48207;SDS011;33997;53.278;9.708;2023-04-06T02:30:48;15.25;;;7.72;;
48207;SDS011;33997;53.278;9.708;2023-04-06T02:33:13;10.73;;;7.47;;
48207;SDS011;33997;53.278;9.708;2023-04-06T02:35:39;11.20;;;7.57;;
48207;SDS011;33997;53.278;9.708;2023-04-06T02:38:05;10.35;;;7.43;;
48207;SDS011;33997;53.278;9.708;2023-04-06T02:40:30;14.35;;;7.10;;
48207;SDS011;33997;53.278;9.708;2023-04-06T02:42:56;10.63;;;7.20;;
48207;SDS011;33997;53.278;9.708;2023-04-06T02:45:21;10.40;;;7.15;;
48207;SDS011;33997;53.278;9.708;2023-04-06T02:47:47;13.13;;;7.72;;
48207;SDS011;33997;53.278;9.708;2023-04-06T02:50:12;14.25;;;8.27;;
48207;SDS011;33997;53.278;9.708;2023-04-06T02:52:38;10.18;;;7.32;;
48207;SDS011;33997;53.278;9.708;2023-04-06T02:55:03;12.80;;;7.93;;
48207;SDS011;33997;53.278;9.708;2023-04-06T02:57:29;12.10;;;8.07;;
48207;SDS011;33997;53.278;9.708;2023-04-06T02:59:55;12.43;;;7.88;;
48207;SDS011;33997;53.278;9.708;2023-04-06T03:02:20;13.68;;;8.10;;
48207;SDS011;33997;53.278;9.708;2023-04-06T03:04:46;11.13;;;7.72;;
48207;SDS011;33997;53.278;9.708;2023-04-06T03:07:12;10.05;;;7.32;;
48207;SDS011;33997;53.278;9.708;2023-04-06T03:09:37;12.77;;;7.65;;
48207;SDS011;33997;53.278;9.708;2023-04-06T03:12:03;12.02;;;7.38;;
48207;SDS011;33997;53.278;9.708;2023-04-06T03:14:29;10.75;;;7.55;;
48207;SDS011;33997;53.278;9.708;2023-04-06T03:16:54;10.75;;;8.00;;
48207;SDS011;33997;53.278;9.708;2023-04-06T03:19:20;11.10;;;7.53;;
48207;SDS011;33997;53.278;9.708;2023-04-06T03:21:45;10.93;;;7.43;;
48207;SDS011;33997;53.278;9.708;2023-04-06T03:24:12;13.85;;;7.53;;
48207;SDS011;33997;53.278;9.708;2023-04-06T03:26:38;9.68;;;7.10;;
48207;SDS011;33997;53.278;9.708;2023-04-06T03:29:04;11.70;;;7.38;;
48207;SDS011;33997;53.278;9.708;2023-04-06T03:31:30;11.32;;;7.00;;
48207;SDS011;33997;53.278;9.708;2023-04-06T03:33:55;10.18;;;6.57;;
48207;SDS011;33997;53.278;9.708;2023-04-06T03:36:21;9.18;;;6.47;;
48207;SDS011;33997;53.278;9.708;2023-04-06T03:38:46;12.32;;;6.68;;
48207;SDS011;33997;53.278;9.708;2023-04-06T03:41:12;9.70;;;6.68;;
48207;SDS011;33997;53.278;9.708;2023-04-06T03:43:37;11.20;;;7.13;;
48207;SDS011;33997;53.278;9.708;2023-04-06T03:46:03;9.85;;;6.85;;
48207;SDS011;33997;53.278;9.708;2023-04-06T03:48:28;12.65;;;6.75;;
48207;SDS011;33997;53.278;9.708;2023-04-06T03:50:54;12.88;;;7.10;;
48207;SDS011;33997;53.278;9.708;2023-04-06T03:53:20;10.52;;;6.68;;
48207;SDS011;33997;53.278;9.708;2023-04-06T03:55:45;9.10;;;6.15;;
48207;SDS011;33997;53.278;9.708;2023-04-06T03:58:11;9.15;;;6.80;;
48207;SDS011;33997;53.278;9.708;2023-04-06T04:00:36;10.27;;;6.85;;
48207;SDS011;33997;53.278;9.708;2023-04-06T04:03:02;9.80;;;6.93;;
48207;SDS011;33997;53.278;9.708;2023-04-06T04:05:27;10.60;;;7.50;;
48207;SDS011;33997;53.278;9.708;2023-04-06T04:07:53;11.00;;;7.05;;
48207;SDS011;33997;53.278;9.708;2023-04-06T04:10:19;9.90;;;7.25;;
48207;SDS011;33997;53.278;9.708;2023-04-06T04:12:44;10.98;;;6.47;;
48207;SDS011;33997;53.278;9.708;2023-04-06T04:15:10;10.85;;;6.95;;
48207;SDS011;33997;53.278;9.708;2023-04-06T04:17:35;11.30;;;7.05;;
48207;SDS011;33997;53.278;9.708;2023-04-06T04:20:01;10.18;;;6.70;;
48207;SDS011;33997;53.278;9.708;2023-04-06T04:22:26;10.98;;;7.55;;
48207;SDS011;33997;53.278;9.708;2023-04-06T04:24:55;11.48;;;7.15;;
48207;SDS011;33997;53.278;9.708;2023-04-06T04:27:20;11.35;;;7.43;;
48207;SDS011;33997;53.278;9.708;2023-04-06T04:29:46;10.77;;;7.57;;
48207;SDS011;33997;53.278;9.708;2023-04-06T04:32:12;13.30;;;7.72;;
48207;SDS011;33997;53.278;9.708;2023-04-06T04:34:37;12.10;;;7.55;;
48207;SDS011;33997;53.278;9.708;2023-04-06T04:37:05;12.13;;;7.63;;
48207;SDS011;33997;53.278;9.708;2023-04-06T04:39:30;11.32;;;7.97;;
48207;SDS011;33997;53.278;9.708;2023-04-06T04:41:56;11.23;;;8.32;;
48207;SDS011;33997;53.278;9.708;2023-04-06T04:44:22;13.20;;;7.78;;
48207;SDS011;33997;53.278;9.708;2023-04-06T04:46:47;14.30;;;7.57;;
48207;SDS011;33997;53.278;9.708;2023-04-06T04:49:13;14.52;;;7.93;;
48207;SDS011;33997;53.278;9.708;2023-04-06T04:51:39;11.60;;;8.00;;
48207;SDS011;33997;53.278;9.708;2023-04-06T04:54:05;11.80;;;7.82;;
48207;SDS011;33997;53.278;9.708;2023-04-06T04:56:30;15.90;;;8.00;;
48207;SDS011;33997;53.278;9.708;2023-04-06T04:58:56;11.18;;;7.75;;
48207;SDS011;33997;53.278;9.708;2023-04-06T05:01:21;11.32;;;7.63;;
48207;SDS011;33997;53.278;9.708;2023-04-06T05:03:46;12.20;;;8.20;;
48207;SDS011;33997;53.278;9.708;2023-04-06T05:06:12;11.30;;;7.35;;
48207;SDS011;33997;53.278;9.708;2023-04-06T05:08:37;14.15;;;8.77;;
48207;SDS011;33997;53.278;9.708;2023-04-06T05:11:03;12.93;;;7.85;;
48207;SDS011;33997;53.278;9.708;2023-04-06T05:13:29;11.02;;;7.40;;
48207;SDS011;33997;53.278;9.708;2023-04-06T05:15:55;13.15;;;7.95;;
48207;SDS011;33997;53.278;9.708;2023-04-06T05:18:21;12.00;;;7.80;;
48207;SDS011;33997;53.278;9.708;2023-04-06T05:20:46;11.15;;;7.07;;
48207;SDS011;33997;53.278;9.708;2023-04-06T05:23:12;11.32;;;7.20;;
48207;SDS011;33997;53.278;9.708;2023-04-06T05:25:37;13.32;;;7.32;;
48207;SDS011;33997;53.278;9.708;2023-04-06T05:28:03;12.30;;;7.45;;
48207;SDS011;33997;53.278;9.708;2023-04-06T05:30:28;13.70;;;7.30;;
48207;SDS011;33997;53.278;9.708;2023-04-06T05:32:54;13.35;;;7.43;;
48207;SDS011;33997;53.278;9.708;2023-04-06T05:35:20;12.38;;;7.20;;
48207;SDS011;33997;53.278;9.708;2023-04-06T05:37:45;14.07;;;7.80;;
48207;SDS011;33997;53.278;9.708;2023-04-06T05:40:11;14.07;;;7.05;;
48207;SDS011;33997;53.278;9.708;2023-04-06T05:42:37;13.43;;;6.97;;
48207;SDS011;33997;53.278;9.708;2023-04-06T05:45:03;9.35;;;6.53;;
48207;SDS011;33997;53.278;9.708;2023-04-06T05:47:30;11.13;;;6.00;;
48207;SDS011;33997;53.278;9.708;2023-04-06T05:49:56;12.63;;;6.35;;
48207;SDS011;33997;53.278;9.708;2023-04-06T05:52:21;11.15;;;6.18;;
48207;SDS011;33997;53.278;9.708;2023-04-06T05:54:46;12.95;;;5.85;;
48207;SDS011;33997;53.278;9.708;2023-04-06T05:57:12;10.65;;;5.88;;
48207;SDS011;33997;53.278;9.708;2023-04-06T05:59:37;10.55;;;6.05;;
48207;SDS011;33997;53.278;9.708;2023-04-06T06:02:03;10.52;;;5.88;;
48207;SDS011;33997;53.278;9.708;2023-04-06T06:04:30;9.48;;;5.20;;
48207;SDS011;33997;53.278;9.708;2023-04-06T06:06:56;11.85;;;5.70;;
48207;SDS011;33997;53.278;9.708;2023-04-06T06:09:21;8.40;;;5.15;;
48207;SDS011;33997;53.278;9.708;2023-04-06T06:11:47;11.23;;;5.00;;
48207;SDS011;33997;53.278;9.708;2023-04-06T06:14:13;7.65;;;4.57;;
48207;SDS011;33997;53.278;9.708;2023-04-06T06:16:38;11.90;;;5.32;;
48207;SDS011;33997;53.278;9.708;2023-04-06T06:19:04;7.63;;;4.72;;
48207;SDS011;33997;53.278;9.708;2023-04-06T06:21:29;8.55;;;4.90;;
48207;SDS011;33997;53.278;9.708;2023-04-06T06:23:56;10.05;;;5.63;;
48207;SDS011;33997;53.278;9.708;2023-04-06T06:26:21;7.55;;;4.60;;
48207;SDS011;33997;53.278;9.708;2023-04-06T06:28:47;8.15;;;4.72;;
48207;SDS011;33997;53.278;9.708;2023-04-06T06:31:12;8.95;;;4.50;;
48207;SDS011;33997;53.278;9.708;2023-04-06T06:33:38;8.32;;;4.60;;
48207;SDS011;33997;53.278;9.708;2023-04-06T06:36:03;7.68;;;4.28;;
48207;SDS011;33997;53.278;9.708;2023-04-06T06:38:29;10.02;;;4.60;;
48207;SDS011;33997;53.278;9.708;2023-04-06T06:40:55;8.82;;;4.50;;
48207;SDS011;33997;53.278;9.708;2023-04-06T06:43:20;7.78;;;3.80;;
48207;SDS011;33997;53.278;9.708;2023-04-06T06:45:46;7.93;;;3.80;;
48207;SDS011;33997;53.278;9.708;2023-04-06T06:48:11;6.15;;;4.00;;
48207;SDS011;33997;53.278;9.708;2023-04-06T06:50:37;7.95;;;4.13;;
48207;SDS011;33997;53.278;9.708;2023-04-06T06:53:02;8.07;;;4.32;;
48207;SDS011;33997;53.278;9.708;2023-04-06T06:55:28;7.68;;;3.97;;
48207;SDS011;33997;53.278;9.708;2023-04-06T06:57:53;7.68;;;4.13;;
48207;SDS011;33997;53.278;9.708;2023-04-06T07:00:19;7.53;;;4.05;;
48207;SDS011;33997;53.278;9.708;2023-04-06T07:02:48;6.10;;;3.70;;
48207;SDS011;33997;53.278;9.708;2023-04-06T07:05:14;7.07;;;4.00;;
48207;SDS011;33997;53.278;9.708;2023-04-06T07:07:40;8.48;;;3.75;;
48207;SDS011;33997;53.278;9.708;2023-04-06T07:10:06;8.00;;;3.67;;
48207;SDS011;33997;53.278;9.708;2023-04-06T07:12:32;9.15;;;4.15;;
48207;SDS011;33997;53.278;9.708;2023-04-06T07:14:58;7.20;;;3.88;;
48207;SDS011;33997;53.278;9.708;2023-04-06T07:17:23;5.93;;;4.18;;
48207;SDS011;33997;53.278;9.708;2023-04-06T07:19:49;6.18;;;4.15;;
48207;SDS011;33997;53.278;9.708;2023-04-06T07:22:14;7.13;;;4.28;;
48207;SDS011;33997;53.278;9.708;2023-04-06T07:24:40;6.90;;;4.30;;
48207;SDS011;33997;53.278;9.708;2023-04-06T07:27:05;9.65;;;4.47;;
48207;SDS011;33997;53.278;9.708;2023-04-06T07:29:31;7.47;;;4.07;;
48207;SDS011;33997;53.278;9.708;2023-04-06T07:31:56;7.13;;;4.45;;
48207;SDS011;33997;53.278;9.708;2023-04-06T07:34:22;6.88;;;4.10;;
48207;SDS011;33997;53.278;9.708;2023-04-06T07:36:47;10.98;;;4.30;;
48207;SDS011;33997;53.278;9.708;2023-04-06T07:39:13;6.88;;;4.05;;
48207;SDS011;33997;53.278;9.708;2023-04-06T07:41:39;8.23;;;4.57;;
48207;SDS011;33997;53.278;9.708;2023-04-06T07:44:05;6.60;;;4.28;;
48207;SDS011;33997;53.278;9.708;2023-04-06T07:46:31;11.15;;;5.25;;
48207;SDS011;33997;53.278;9.708;2023-04-06T07:48:57;7.00;;;4.55;;
48207;SDS011;33997;53.278;9.708;2023-04-06T07:51:22;9.63;;;5.28;;
48207;SDS011;33997;53.278;9.708;2023-04-06T07:53:49;9.65;;;4.55;;
48207;SDS011;33997;53.278;9.708;2023-04-06T07:56:15;9.38;;;4.70;;
48207;SDS011;33997;53.278;9.708;2023-04-06T07:58:41;7.60;;;4.32;;
48207;SDS011;33997;53.278;9.708;2023-04-06T08:01:06;9.63;;;4.88;;
48207;SDS011;33997;53.278;9.708;2023-04-06T08:03:35;8.07;;;4.60;;
48207;SDS011;33997;53.278;9.708;2023-04-06T08:06:01;8.70;;;4.55;;
48207;SDS011;33997;53.278;9.708;2023-04-06T08:08:27;8.18;;;4.20;;
48207;SDS011;33997;53.278;9.708;2023-04-06T08:10:53;6.60;;;4.47;;
48207;SDS011;33997;53.278;9.708;2023-04-06T08:13:18;8.93;;;4.32;;
48207;SDS011;33997;53.278;9.708;2023-04-06T08:15:44;10.27;;;4.85;;
48207;SDS011;33997;53.278;9.708;2023-04-06T08:18:10;8.70;;;4.82;;
48207;SDS011;33997;53.278;9.708;2023-04-06T08:20:36;8.10;;;4.65;;
48207;SDS011;33997;53.278;9.708;2023-04-06T08:23:02;7.90;;;4.03;;
48207;SDS011;33997;53.278;9.708;2023-04-06T08:25:27;8.57;;;4.38;;
48207;SDS011;33997;53.278;9.708;2023-04-06T08:27:53;9.20;;;4.78;;
48207;SDS011;33997;53.278;9.708;2023-04-06T08:30:18;7.20;;;4.28;;
48207;SDS011;33997;53.278;9.708;2023-04-06T08:32:47;6.78;;;4.07;;
48207;SDS011;33997;53.278;9.708;2023-04-06T08:35:12;7.75;;;4.45;;
48207;SDS011;33997;53.278;9.708;2023-04-06T08:37:38;9.38;;;4.65;;
48207;SDS011;33997;53.278;9.708;2023-04-06T08:40:04;7.68;;;4.40;;
48207;SDS011;33997;53.278;9.708;2023-04-06T08:42:31;8.45;;;4.47;;
48207;SDS011;33997;53.278;9.708;2023-04-06T08:44:58;9.50;;;4.30;;
48207;SDS011;33997;53.278;9.708;2023-04-06T08:47:24;7.95;;;4.07;;
48207;SDS011;33997;53.278;9.708;2023-04-06T08:49:50;9.20;;;3.47;;
48207;SDS011;33997;53.278;9.708;2023-04-06T08:52:17;6.15;;;2.70;;
48207;SDS011;33997;53.278;9.708;2023-04-06T08:54:43;5.72;;;2.58;;
48207;SDS011;33997;53.278;9.708;2023-04-06T08:57:09;5.45;;;2.80;;
48207;SDS011;33997;53.278;9.708;2023-04-06T08:59:35;7.30;;;2.65;;
48207;SDS011;33997;53.278;9.708;2023-04-06T09:02:03;5.53;;;2.83;;
48207;SDS011;33997;53.278;9.708;2023-04-06T09:04:30;5.97;;;3.08;;
48207;SDS011;33997;53.278;9.708;2023-04-06T09:06:56;9.55;;;2.95;;
48207;SDS011;33997;53.278;9.708;2023-04-06T09:09:22;5.85;;;2.75;;
48207;SDS011;33997;53.278;9.708;2023-04-06T09:11:50;5.47;;;2.60;;
48207;SDS011;33997;53.278;9.708;2023-04-06T09:14:16;8.32;;;2.85;;
48207;SDS011;33997;53.278;9.708;2023-04-06T09:19:23;4.15;;;2.55;;
48207;SDS011;33997;53.278;9.708;2023-04-06T09:21:48;4.85;;;2.47;;
48207;SDS011;33997;53.278;9.708;2023-04-06T09:24:14;5.25;;;3.00;;
48207;SDS011;33997;53.278;9.708;2023-04-06T09:26:45;5.95;;;2.90;;
48207;SDS011;33997;53.278;9.708;2023-04-06T09:29:21;9.05;;;2.95;;
48207;SDS011;33997;53.278;9.708;2023-04-06T09:31:51;6.22;;;2.80;;
48207;SDS011;33997;53.278;9.708;2023-04-06T09:34:20;6.47;;;2.70;;
48207;SDS011;33997;53.278;9.708;2023-04-06T09:36:47;5.70;;;2.83;;
48207;SDS011;33997;53.278;9.708;2023-04-06T09:39:13;6.35;;;2.88;;
48207;SDS011;33997;53.278;9.708;2023-04-06T09:41:38;8.85;;;3.20;;
48207;SDS011;33997;53.278;9.708;2023-04-06T09:44:08;6.18;;;3.30;;
48207;SDS011;33997;53.278;9.708;2023-04-06T09:46:38;7.22;;;3.10;;
48207;SDS011;33997;53.278;9.708;2023-04-06T09:49:05;6.85;;;3.00;;
48207;SDS011;33997;53.278;9.708;2023-04-06T09:51:36;7.28;;;3.22;;
48207;SDS011;33997;53.278;9.708;2023-04-06T09:54:04;7.18;;;3.40;;
48207;SDS011;33997;53.278;9.708;2023-04-06T09:56:31;9.52;;;3.38;;
48207;SDS011;33997;53.278;9.708;2023-04-06T09:59:02;8.63;;;3.22;;
48207;SDS011;33997;53.278;9.708;2023-04-06T10:01:39;5.97;;;3.20;;
48207;SDS011;33997;53.278;9.708;2023-04-06T10:06:50;7.18;;;3.67;;
48207;SDS011;33997;53.278;9.708;2023-04-06T10:09:17;7.03;;;3.63;;
48207;SDS011;33997;53.278;9.708;2023-04-06T10:11:45;6.80;;;3.72;;
48207;SDS011;33997;53.278;9.708;2023-04-06T10:14:13;10.43;;;3.95;;
48207;SDS011;33997;53.278;9.708;2023-04-06T10:16:40;5.95;;;3.20;;
48207;SDS011;33997;53.278;9.708;2023-04-06T10:19:13;5.82;;;3.50;;
48207;SDS011;33997;53.278;9.708;2023-04-06T10:21:48;6.70;;;3.42;;
48207;SDS011;33997;53.278;9.708;2023-04-06T10:24:18;8.02;;;4.45;;
48207;SDS011;33997;53.278;9.708;2023-04-06T10:26:43;9.35;;;4.93;;
48207;SDS011;33997;53.278;9.708;2023-04-06T10:29:22;9.52;;;4.65;;
48207;SDS011;33997;53.278;9.708;2023-04-06T10:31:48;9.38;;;4.97;;
48207;SDS011;33997;53.278;9.708;2023-04-06T10:34:14;7.88;;;5.05;;
48207;SDS011;33997;53.278;9.708;2023-04-06T10:36:40;8.73;;;4.57;;
48207;SDS011;33997;53.278;9.708;2023-04-06T10:39:05;8.40;;;4.93;;
48207;SDS011;33997;53.278;9.708;2023-04-06T10:41:41;8.90;;;4.80;;
48207;SDS011;33997;53.278;9.708;2023-04-06T10:44:08;13.90;;;5.43;;
48207;SDS011;33997;53.278;9.708;2023-04-06T10:46:53;10.05;;;5.97;;
48207;SDS011;33997;53.278;9.708;2023-04-06T10:49:22;8.60;;;5.68;;
48207;SDS011;33997;53.278;9.708;2023-04-06T10:51:56;10.77;;;5.47;;
48207;SDS011;33997;53.278;9.708;2023-04-06T10:54:23;9.90;;;5.57;;
48207;SDS011;33997;53.278;9.708;2023-04-06T10:56:50;8.70;;;5.30;;
48207;SDS011;33997;53.278;9.708;2023-04-06T10:59:22;9.18;;;6.03;;
48207;SDS011;33997;53.278;9.708;2023-04-06T11:01:49;9.52;;;5.80;;
48207;SDS011;33997;53.278;9.708;2023-04-06T11:04:15;9.45;;;5.97;;
48207;SDS011;33997;53.278;9.708;2023-04-06T11:06:48;10.00;;;6.72;;
48207;SDS011;33997;53.278;9.708;2023-04-06T11:09:24;10.82;;;6.07;;
48207;SDS011;33997;53.278;9.708;2023-04-06T11:11:53;12.55;;;6.90;;
48207;SDS011;33997;53.278;9.708;2023-04-06T11:14:19;10.15;;;6.63;;
48207;SDS011;33997;53.278;9.708;2023-04-06T11:16:46;10.20;;;6.57;;
48207;SDS011;33997;53.278;9.708;2023-04-06T11:19:15;10.85;;;6.78;;
48207;SDS011;33997;53.278;9.708;2023-04-06T11:21:42;9.55;;;6.05;;
48207;SDS011;33997;53.278;9.708;2023-04-06T11:26:46;9.27;;;6.00;;
48207;SDS011;33997;53.278;9.708;2023-04-06T11:29:14;12.15;;;6.53;;
48207;SDS011;33997;53.278;9.708;2023-04-06T11:31:47;11.10;;;6.45;;
48207;SDS011;33997;53.278;9.708;2023-04-06T11:36:44;12.32;;;6.90;;
48207;SDS011;33997;53.278;9.708;2023-04-06T11:39:21;9.38;;;6.72;;
48207;SDS011;33997;53.278;9.708;2023-04-06T11:41:50;11.60;;;6.90;;
48207;SDS011;33997;53.278;9.708;2023-04-06T11:44:28;10.80;;;6.68;;
48207;SDS011;33997;53.278;9.708;2023-04-06T11:47:02;11.13;;;6.95;;
48207;SDS011;33997;53.278;9.708;2023-04-06T11:49:29;8.07;;;6.03;;
48207;SDS011;33997;53.278;9.708;2023-04-06T11:51:55;11.88;;;6.07;;
48207;SDS011;33997;53.278;9.708;2023-04-06T11:54:35;12.05;;;7.03;;
48207;SDS011;33997;53.278;9.708;2023-04-06T11:57:02;11.48;;;6.97;;
48207;SDS011;33997;53.278;9.708;2023-04-06T11:59:29;11.30;;;6.85;;
48207;SDS011;33997;53.278;9.708;2023-04-06T12:01:57;10.35;;;6.70;;
48207;SDS011;33997;53.278;9.708;2023-04-06T12:04:23;10.95;;;6.90;;
48207;SDS011;33997;53.278;9.708;2023-04-06T12:06:48;11.88;;;7.07;;
48207;SDS011;33997;53.278;9.708;2023-04-06T12:09:15;10.48;;;7.32;;
48207;SDS011;33997;53.278;9.708;2023-04-06T12:11:42;11.73;;;6.65;;
48207;SDS011;33997;53.278;9.708;2023-04-06T12:14:08;11.57;;;7.07;;
48207;SDS011;33997;53.278;9.708;2023-04-06T12:16:34;12.60;;;6.50;;
48207;SDS011;33997;53.278;9.708;2023-04-06T12:19:00;9.40;;;6.70;;
48207;SDS011;33997;53.278;9.708;2023-04-06T12:21:29;9.70;;;6.35;;
48207;SDS011;33997;53.278;9.708;2023-04-06T12:23:56;9.60;;;6.55;;
48207;SDS011;33997;53.278;9.708;2023-04-06T12:26:22;10.15;;;6.10;;
48207;SDS011;33997;53.278;9.708;2023-04-06T12:28:47;10.02;;;6.50;;
48207;SDS011;33997;53.278;9.708;2023-04-06T12:31:16;9.32;;;6.50;;
48207;SDS011;33997;53.278;9.708;2023-04-06T12:33:42;11.52;;;6.72;;
48207;SDS011;33997;53.278;9.708;2023-04-06T12:36:13;8.90;;;6.35;;
48207;SDS011;33997;53.278;9.708;2023-04-06T12:38:40;10.60;;;7.15;;
48207;SDS011;33997;53.278;9.708;2023-04-06T12:41:06;9.95;;;6.60;;
48207;SDS011;33997;53.278;9.708;2023-04-06T12:43:32;9.82;;;7.25;;
48207;SDS011;33997;53.278;9.708;2023-04-06T12:45:57;9.43;;;6.88;;
48207;SDS011;33997;53.278;9.708;2023-04-06T12:48:24;10.48;;;7.20;;
48207;SDS011;33997;53.278;9.708;2023-04-06T12:51:08;9.75;;;6.43;;
48207;SDS011;33997;53.278;9.708;2023-04-06T12:53:34;10.75;;;6.57;;
48207;SDS011;33997;53.278;9.708;2023-04-06T12:56:00;11.30;;;7.20;;
48207;SDS011;33997;53.278;9.708;2023-04-06T12:58:26;9.35;;;6.70;;
48207;SDS011;33997;53.278;9.708;2023-04-06T13:00:53;9.98;;;6.32;;
48207;SDS011;33997;53.278;9.708;2023-04-06T13:03:19;8.82;;;6.53;;
48207;SDS011;33997;53.278;9.708;2023-04-06T13:05:46;9.63;;;5.95;;
48207;SDS011;33997;53.278;9.708;2023-04-06T13:08:12;7.88;;;5.53;;
48207;SDS011;33997;53.278;9.708;2023-04-06T13:10:38;8.25;;;5.65;;
48207;SDS011;33997;53.278;9.708;2023-04-06T13:13:27;9.65;;;6.47;;
48207;SDS011;33997;53.278;9.708;2023-04-06T13:15:54;7.88;;;5.97;;
48207;SDS011;33997;53.278;9.708;2023-04-06T13:18:24;9.55;;;6.57;;
48207;SDS011;33997;53.278;9.708;2023-04-06T13:20:49;9.80;;;6.40;;
48207;SDS011;33997;53.278;9.708;2023-04-06T13:23:15;10.25;;;6.13;;
48207;SDS011;33997;53.278;9.708;2023-04-06T13:25:41;10.43;;;6.50;;
48207;SDS011;33997;53.278;9.708;2023-04-06T13:28:07;8.27;;;5.78;;
48207;SDS011;33997;53.278;9.708;2023-04-06T13:30:33;8.25;;;6.00;;
48207;SDS011;33997;53.278;9.708;2023-04-06T13:32:59;10.07;;;5.63;;
48207;SDS011;33997;53.278;9.708;2023-04-06T13:35:24;7.10;;;5.78;;
48207;SDS011;33997;53.278;9.708;2023-04-06T13:37:50;8.38;;;5.57;;
48207;SDS011;33997;53.278;9.708;2023-04-06T13:40:17;7.80;;;5.30;;
48207;SDS011;33997;53.278;9.708;2023-04-06T13:42:42;10.23;;;6.05;;
48207;SDS011;33997;53.278;9.708;2023-04-06T13:45:10;7.10;;;5.13;;
48207;SDS011;33997;53.278;9.708;2023-04-06T13:47:35;8.40;;;6.00;;
48207;SDS011;33997;53.278;9.708;2023-04-06T13:50:01;8.65;;;5.40;;
48207;SDS011;33997;53.278;9.708;2023-04-06T13:52:27;8.20;;;5.60;;
48207;SDS011;33997;53.278;9.708;2023-04-06T13:54:52;8.50;;;5.57;;
48207;SDS011;33997;53.278;9.708;2023-04-06T13:57:17;7.32;;;5.53;;
48207;SDS011;33997;53.278;9.708;2023-04-06T13:59:43;7.55;;;5.63;;
48207;SDS011;33997;53.278;9.708;2023-04-06T14:02:09;8.82;;;5.10;;
48207;SDS011;33997;53.278;9.708;2023-04-06T14:04:35;9.35;;;5.50;;
48207;SDS011;33997;53.278;9.708;2023-04-06T14:07:01;9.32;;;5.78;;
48207;SDS011;33997;53.278;9.708;2023-04-06T14:09:28;8.13;;;5.88;;
48207;SDS011;33997;53.278;9.708;2023-04-06T14:11:54;7.80;;;5.60;;
48207;SDS011;33997;53.278;9.708;2023-04-06T14:14:19;9.65;;;6.13;;
48207;SDS011;33997;53.278;9.708;2023-04-06T14:16:46;10.25;;;5.15;;
48207;SDS011;33997;53.278;9.708;2023-04-06T14:19:12;7.63;;;5.30;;
48207;SDS011;33997;53.278;9.708;2023-04-06T14:21:40;6.35;;;4.95;;
48207;SDS011;33997;53.278;9.708;2023-04-06T14:24:07;8.02;;;5.20;;
48207;SDS011;33997;53.278;9.708;2023-04-06T14:26:33;7.55;;;5.22;;
48207;SDS011;33997;53.278;9.708;2023-04-06T14:29:03;8.07;;;5.55;;
48207;SDS011;33997;53.278;9.708;2023-04-06T14:31:29;7.18;;;4.93;;
48207;SDS011;33997;53.278;9.708;2023-04-06T14:33:55;8.60;;;5.22;;
48207;SDS011;33997;53.278;9.708;2023-04-06T14:36:21;8.30;;;6.05;;
48207;SDS011;33997;53.278;9.708;2023-04-06T14:38:46;8.85;;;6.03;;
48207;SDS011;33997;53.278;9.708;2023-04-06T14:41:16;8.27;;;5.32;;
48207;SDS011;33997;53.278;9.708;2023-04-06T14:43:43;10.85;;;7.55;;
48207;SDS011;33997;53.278;9.708;2023-04-06T14:46:08;10.27;;;7.18;;